createdAt,value
2019-04-24T00:01:08.155Z,21.70
2019-04-24T00:03:44.117Z,21.70
2019-04-24T00:08:40.828Z,21.70
2019-04-24T00:11:23.273Z,21.70
2019-04-24T00:13:43.704Z,21.70
2019-04-24T00:16:04.671Z,21.70
2019-04-24T00:18:52.186Z,21.70
2019-04-24T00:21:03.430Z,21.70
2019-04-24T00:23:31.950Z,21.70
2019-04-24T00:25:51.525Z,21.70
2019-04-24T00:28:33.332Z,21.70
2019-04-24T00:31:00.586Z,21.70
2019-04-24T00:33:20.259Z,21.70
2019-04-24T00:36:03.569Z,21.80
2019-04-24T00:38:25.120Z,21.80
2019-04-24T00:40:58.957Z,21.80
2019-04-24T00:43:30.117Z,21.80
2019-04-24T00:45:53.315Z,21.80
2019-04-24T00:51:00.409Z,21.80
2019-04-24T00:55:49.196Z,21.80
2019-04-24T00:58:13.586Z,21.90
2019-04-24T01:05:41.529Z,21.90
2019-04-24T01:08:08.075Z,21.90
2019-04-24T01:10:40.828Z,21.90
2019-04-24T01:15:28.122Z,21.90
2019-04-24T01:20:42.313Z,22.00
2019-04-24T01:23:02.361Z,22.00
2019-04-24T01:28:04.153Z,22.00
2019-04-24T01:33:09.006Z,22.00
2019-04-24T01:35:42.142Z,22.00
2019-04-24T01:42:47.996Z,22.10
2019-04-24T01:45:18.736Z,22.10
2019-04-24T01:47:57.535Z,22.10
2019-04-24T01:50:16.647Z,22.10
2019-04-24T01:55:09.049Z,22.10
2019-04-24T02:00:11.175Z,22.10
2019-04-24T02:05:09.821Z,22.10
2019-04-24T02:10:26.479Z,22.20
2019-04-24T02:12:48.074Z,22.20
2019-04-24T02:15:07.262Z,22.20
2019-04-24T02:17:40.206Z,22.20
2019-04-24T02:20:21.609Z,22.20
2019-04-24T02:22:35.207Z,22.20
2019-04-24T02:27:29.462Z,22.10
2019-04-24T02:29:50.249Z,22.10
2019-04-24T02:40:04.095Z,22.00
2019-04-24T02:52:31.083Z,22.00
2019-04-24T02:55:02.731Z,22.00
2019-04-24T02:57:26.287Z,22.00
2019-04-24T03:07:49.683Z,22.00
2019-04-24T03:09:58.928Z,22.00
2019-04-24T03:14:48.594Z,21.90
2019-04-24T03:17:26.865Z,21.90
2019-04-24T03:22:13.812Z,22.00
2019-04-24T03:29:52.277Z,22.00
2019-04-24T03:34:55.597Z,22.10
2019-04-24T03:39:54.760Z,22.10
2019-04-24T03:42:43.454Z,22.20
2019-04-24T03:46:45.123Z,22.20
2019-04-24T03:52:07.022Z,22.30
2019-04-24T03:54:16.141Z,22.30
2019-04-24T03:56:41.345Z,22.30
2019-04-24T04:02:00.881Z,22.20
2019-04-24T04:04:21.770Z,22.20
2019-04-24T04:09:29.462Z,22.20
2019-04-24T04:14:09.771Z,22.20
2019-04-24T04:21:39.634Z,22.20
2019-04-24T04:26:43.048Z,22.20
2019-04-24T04:31:36.113Z,22.20
2019-04-24T04:34:11.678Z,22.20
2019-04-24T04:36:49.083Z,22.20
2019-04-24T04:38:56.234Z,22.10
2019-04-24T04:51:30.692Z,22.10
2019-04-24T04:53:47.952Z,22.10
2019-04-24T04:56:31.893Z,22.10
2019-04-24T04:58:58.752Z,22.10
2019-04-24T05:01:34.686Z,22.10
2019-04-24T05:14:23.671Z,22.00
2019-04-24T05:18:56.279Z,22.10
2019-04-24T05:21:06.547Z,22.00
2019-04-24T05:23:54.857Z,21.80
2019-04-24T05:26:25.103Z,21.90
2019-04-24T05:28:48.881Z,21.90
2019-04-24T05:30:47.320Z,21.90
2019-04-24T05:35:50.161Z,21.90
2019-04-24T05:38:20.133Z,21.90
2019-04-24T05:43:32.436Z,21.90
2019-04-24T05:48:23.827Z,22.00
2019-04-24T05:53:23.447Z,21.90
2019-04-24T05:58:21.636Z,22.00
2019-04-24T06:03:53.071Z,22.00
2019-04-24T06:08:12.147Z,22.00
2019-04-24T06:10:58.175Z,22.00
2019-04-24T06:13:08.983Z,22.00
2019-04-24T06:20:49.633Z,22.00
2019-04-24T06:23:24.473Z,22.00
2019-04-24T06:25:51.695Z,22.00
2019-04-24T06:27:59.684Z,22.00
2019-04-24T06:30:36.262Z,22.00
2019-04-24T06:32:47.997Z,22.00
2019-04-24T06:37:52.973Z,22.00
2019-04-24T06:43:01.030Z,22.00
2019-04-24T06:45:37.442Z,22.00
2019-04-24T06:50:30.849Z,22.00
2019-04-24T06:52:58.922Z,22.00
2019-04-24T06:55:32.371Z,22.00
2019-04-24T07:00:24.867Z,22.10
2019-04-24T07:10:11.272Z,22.10
2019-04-24T07:12:31.952Z,22.10
2019-04-24T07:14:58.200Z,22.10
2019-04-24T07:20:05.790Z,22.10
2019-04-24T07:22:27.191Z,22.10
2019-04-24T07:27:39.870Z,22.20
2019-04-24T07:30:10.792Z,22.20
2019-04-24T07:32:34.181Z,22.20
2019-04-24T07:34:59.012Z,22.20
2019-04-24T07:37:29.164Z,22.20
2019-04-24T07:39:57.631Z,22.10
2019-04-24T07:42:16.663Z,22.20
2019-04-24T07:44:51.023Z,22.10
2019-04-24T07:47:15.629Z,22.20
2019-04-24T07:49:46.981Z,22.10
2019-04-24T07:52:27.021Z,22.20
2019-04-24T07:54:56.655Z,22.10
2019-04-24T08:02:19.644Z,22.20
2019-04-24T08:04:49.971Z,22.20
2019-04-24T08:10:05.979Z,22.20
2019-04-24T08:12:07.563Z,22.20
2019-04-24T08:17:12.947Z,22.20
2019-04-24T08:20:05.823Z,22.20
2019-04-24T08:22:09.134Z,22.20
2019-04-24T08:24:52.656Z,22.20
2019-04-24T08:27:09.554Z,22.10
2019-04-24T08:29:43.550Z,22.20
2019-04-24T08:39:44.555Z,22.10
2019-04-24T08:42:08.337Z,22.10
2019-04-24T08:44:33.389Z,22.10
2019-04-24T08:46:58.027Z,22.10
2019-04-24T08:49:36.917Z,22.10
2019-04-24T08:54:29.211Z,22.10
2019-04-24T08:59:22.013Z,22.10
2019-04-24T09:01:48.663Z,22.10
2019-04-24T09:04:15.791Z,22.10
2019-04-24T09:06:44.557Z,22.10
2019-04-24T09:09:04.612Z,22.10
2019-04-24T09:11:43.280Z,22.10
2019-04-24T09:14:08.203Z,22.10
2019-04-24T09:19:02.506Z,22.10
2019-04-24T09:21:31.458Z,22.10
2019-04-24T09:29:06.789Z,22.10
2019-04-24T09:31:35.967Z,22.10
2019-04-24T09:36:42.242Z,22.10
2019-04-24T09:39:02.784Z,22.10
2019-04-24T09:41:45.149Z,22.10
2019-04-24T09:44:01.411Z,22.10
2019-04-24T09:46:26.450Z,22.10
2019-04-24T09:51:23.416Z,22.10
2019-04-24T09:53:53.788Z,22.10
2019-04-24T09:56:23.266Z,22.10
2019-04-24T10:08:43.029Z,22.10
2019-04-24T10:11:18.949Z,22.10
2019-04-24T10:13:41.609Z,22.10
2019-04-24T10:15:58.616Z,22.10
2019-04-24T10:18:51.232Z,22.10
2019-04-24T10:21:00.216Z,22.10
2019-04-24T10:23:40.602Z,22.20
2019-04-24T10:26:01.494Z,22.10
2019-04-24T10:28:42.759Z,22.10
2019-04-24T10:33:40.016Z,22.10
2019-04-24T10:36:10.471Z,22.10
2019-04-24T10:43:36.128Z,22.10
2019-04-24T10:46:03.538Z,22.10
2019-04-24T10:48:17.427Z,22.10
2019-04-24T10:53:24.322Z,22.10
2019-04-24T10:58:16.723Z,22.10
2019-04-24T11:00:58.725Z,22.10
2019-04-24T11:03:20.810Z,22.10
2019-04-24T11:08:22.314Z,22.10
2019-04-24T11:10:45.653Z,22.10
2019-04-24T11:13:17.034Z,22.20
2019-04-24T11:15:48.898Z,22.10
2019-04-24T11:18:15.541Z,22.10
2019-04-24T11:20:42.650Z,22.20
2019-04-24T11:23:14.948Z,22.20
2019-04-24T11:26:00.708Z,22.20
2019-04-24T11:28:17.700Z,22.10
2019-04-24T11:30:38.680Z,22.10
2019-04-24T11:38:10.335Z,22.20
2019-04-24T11:40:41.135Z,22.30
2019-04-24T11:45:37.596Z,22.50
2019-04-24T11:48:04.688Z,22.50
2019-04-24T11:50:55.369Z,22.50
2019-04-24T11:55:32.559Z,22.50
2019-04-24T11:58:08.608Z,22.50
2019-04-24T11:59:58.589Z,22.50
2019-04-24T12:02:38.152Z,22.50
2019-04-24T12:05:34.238Z,22.50
2019-04-24T12:07:58.584Z,22.60
2019-04-24T12:10:11.194Z,22.60
2019-04-24T12:12:41.584Z,22.60
2019-04-24T12:17:48.378Z,22.60
2019-04-24T12:20:06.913Z,22.70
2019-04-24T12:22:39.109Z,22.60
2019-04-24T12:25:07.669Z,22.70
2019-04-24T12:27:36.509Z,22.70
2019-04-24T12:29:59.047Z,22.70
2019-04-24T12:32:27.537Z,22.70
2019-04-24T12:35:14.283Z,22.70
2019-04-24T12:40:04.746Z,22.70
2019-04-24T12:44:44.961Z,22.70
2019-04-24T12:52:16.104Z,22.70
2019-04-24T12:54:51.308Z,22.80
2019-04-24T12:57:18.751Z,22.70
2019-04-24T12:59:46.311Z,22.80
2019-04-24T13:02:12.976Z,22.70
2019-04-24T13:04:57.163Z,22.70
2019-04-24T13:07:12.351Z,22.80
2019-04-24T13:09:49.673Z,22.90
2019-04-24T13:12:34.049Z,22.80
2019-04-24T13:14:51.936Z,22.80
2019-04-24T13:21:47.504Z,22.70
2019-04-24T13:24:23.240Z,22.70
2019-04-24T13:29:39.865Z,22.70
2019-04-24T13:32:21.769Z,22.70
2019-04-24T13:34:35.339Z,22.80
2019-04-24T13:37:19.151Z,22.70
2019-04-24T13:39:41.399Z,22.70
2019-04-24T13:42:07.769Z,22.70
2019-04-24T13:46:55.058Z,22.80
2019-04-24T13:49:23.126Z,22.90
2019-04-24T13:52:09.567Z,22.80
2019-04-24T13:56:54.450Z,22.80
2019-04-24T13:59:23.074Z,22.90
2019-04-24T14:04:21.213Z,22.90
2019-04-24T14:12:36.115Z,22.90
2019-04-24T14:14:13.287Z,22.80
2019-04-24T14:16:47.826Z,22.80
2019-04-24T14:19:34.463Z,22.80
2019-04-24T14:21:43.661Z,22.80
2019-04-24T14:24:12.329Z,22.80
2019-04-24T14:26:44.048Z,22.80
2019-04-24T14:29:04.461Z,22.80
2019-04-24T14:31:58.592Z,22.80
2019-04-24T14:34:15.150Z,22.80
2019-04-24T14:36:44.573Z,22.80
2019-04-24T14:41:27.998Z,22.80
2019-04-24T14:44:12.694Z,22.80
2019-04-24T14:49:03.471Z,22.80
2019-04-24T14:51:24.059Z,22.80
2019-04-24T14:54:07.844Z,22.70
2019-04-24T14:56:20.748Z,22.70
2019-04-24T14:59:08.079Z,22.70
2019-04-24T15:01:24.500Z,22.70
2019-04-24T15:03:58.004Z,22.80
2019-04-24T15:06:22.386Z,22.80
2019-04-24T15:08:53.828Z,22.70
2019-04-24T15:11:11.126Z,22.60
2019-04-24T15:13:56.623Z,22.60
2019-04-24T15:16:35.746Z,22.60
2019-04-24T15:18:55.160Z,22.60
2019-04-24T15:21:07.382Z,22.50
2019-04-24T15:24:09.811Z,22.50
2019-04-24T15:26:17.649Z,22.50
2019-04-24T15:28:42.733Z,22.50
2019-04-24T15:31:03.618Z,22.50
2019-04-24T15:33:37.171Z,22.50
2019-04-24T15:38:35.265Z,22.50
2019-04-24T15:43:25.488Z,22.50
2019-04-24T15:45:56.529Z,22.50
2019-04-24T15:48:33.647Z,22.50
2019-04-24T15:52:54.497Z,22.40
2019-04-24T15:55:21.602Z,22.50
2019-04-24T15:57:50.250Z,22.50
2019-04-24T16:00:47.677Z,22.50
2019-04-24T16:05:14.965Z,22.40
2019-04-24T16:07:42.006Z,22.50
2019-04-24T16:10:09.462Z,22.50
2019-04-24T16:12:36.795Z,22.40
2019-04-24T16:15:36.949Z,22.40
2019-04-24T16:18:08.271Z,22.40
2019-04-24T16:20:47.891Z,22.40
2019-04-24T16:23:00.805Z,22.40
2019-04-24T16:30:16.426Z,22.40
2019-04-24T16:33:00.641Z,22.40
2019-04-24T16:35:17.643Z,22.40
2019-04-24T16:38:07.222Z,22.40
2019-04-24T16:43:13.124Z,22.30
2019-04-24T16:45:21.624Z,22.40
2019-04-24T16:48:21.490Z,22.40
2019-04-24T16:52:48.920Z,22.40
2019-04-24T16:55:21.707Z,22.40
2019-04-24T16:57:57.065Z,22.40
2019-04-24T17:00:28.095Z,22.40
2019-04-24T17:02:40.587Z,22.40
2019-04-24T17:07:38.915Z,22.40
2019-04-24T17:15:12.288Z,22.40
2019-04-24T17:22:30.445Z,22.30
2019-04-24T17:25:06.096Z,22.30
2019-04-24T17:27:29.514Z,22.30
2019-04-24T17:30:06.273Z,22.30
2019-04-24T17:35:07.185Z,22.30
2019-04-24T17:36:54.029Z,22.30
2019-04-24T17:39:21.090Z,22.30
2019-04-24T17:41:55.774Z,22.30
2019-04-24T17:47:18.425Z,22.30
2019-04-24T17:49:51.738Z,22.30
2019-04-24T17:52:27.526Z,22.30
2019-04-24T17:54:37.059Z,22.30
2019-04-24T17:57:13.037Z,22.30
2019-04-24T17:59:10.420Z,22.30
2019-04-24T18:01:37.885Z,22.30
2019-04-24T18:04:05.066Z,22.30
2019-04-24T18:06:32.181Z,22.30
2019-04-24T18:08:59.287Z,22.30
2019-04-24T18:11:26.419Z,22.30
2019-04-24T18:13:53.480Z,22.30
2019-04-24T18:16:22.207Z,22.30
2019-04-24T18:18:49.495Z,22.30
2019-04-24T18:21:16.562Z,22.30
2019-04-24T18:23:43.649Z,22.30
2019-04-24T18:26:11.267Z,22.30
2019-04-24T18:28:38.536Z,22.30
2019-04-24T18:31:05.584Z,22.30
2019-04-24T18:33:32.666Z,22.30
2019-04-24T18:35:59.713Z,22.30
2019-04-24T18:38:26.806Z,22.30
2019-04-24T18:40:53.889Z,22.20
2019-04-24T18:43:22.274Z,22.20
2019-04-24T18:45:49.451Z,22.20
2019-04-24T18:48:16.599Z,22.20
2019-04-24T18:50:43.646Z,22.30
2019-04-24T18:53:11.517Z,22.20
2019-04-24T18:55:42.202Z,22.20
2019-04-24T18:58:08.240Z,22.20
2019-04-24T19:00:35.297Z,22.20
2019-04-24T19:03:02.405Z,22.20
2019-04-24T19:05:29.593Z,22.20
2019-04-24T19:07:56.679Z,22.20
2019-04-24T19:10:23.793Z,22.20
2019-04-24T19:12:52.713Z,22.20
2019-04-24T19:15:21.855Z,22.20
2019-04-24T19:17:54.799Z,22.20
2019-04-24T19:20:18.401Z,22.20
2019-04-24T19:22:45.635Z,22.20
2019-04-24T19:25:12.968Z,22.20
2019-04-24T19:27:40.981Z,22.20
2019-04-24T19:30:08.396Z,22.20
2019-04-24T19:32:36.355Z,22.20
2019-04-24T19:35:03.440Z,22.20
2019-04-24T19:37:31.182Z,22.20
2019-04-24T19:39:59.346Z,22.20
2019-04-24T19:42:26.415Z,22.20
2019-04-24T19:44:53.464Z,22.20
2019-04-24T19:47:32.953Z,22.20
2019-04-24T19:49:49.961Z,22.20
2019-04-24T19:52:17.355Z,22.20
2019-04-24T19:54:44.788Z,22.20
2019-04-24T19:57:19.863Z,22.20
2019-04-24T19:59:41.321Z,22.20
2019-04-24T20:02:08.753Z,22.20
2019-04-24T20:04:35.858Z,22.20
2019-04-24T20:07:02.910Z,22.20
2019-04-24T20:09:30.112Z,22.20
2019-04-24T20:11:57.206Z,22.20
2019-04-24T20:14:24.387Z,22.20
2019-04-24T20:16:51.717Z,22.20
2019-04-24T20:19:19.867Z,22.20
2019-04-24T20:21:47.811Z,22.20
2019-04-24T20:24:15.081Z,22.20
2019-04-24T20:26:42.148Z,22.20
2019-04-24T20:29:09.302Z,22.20
2019-04-24T20:31:36.355Z,22.20
2019-04-24T20:34:03.599Z,22.20
2019-04-24T20:36:31.462Z,22.20
2019-04-24T20:38:58.602Z,22.20
2019-04-24T20:41:25.799Z,22.20
2019-04-24T20:43:52.900Z,22.20
2019-04-24T20:46:19.997Z,22.20
2019-04-24T20:48:47.082Z,22.20
2019-04-24T20:51:14.183Z,22.20
2019-04-24T20:53:42.475Z,22.20
2019-04-24T20:56:09.870Z,22.20
2019-04-24T20:58:36.953Z,22.20
2019-04-24T21:01:03.994Z,22.20
2019-04-24T21:03:32.034Z,22.20
2019-04-24T21:05:59.304Z,22.20
2019-04-24T21:08:26.373Z,22.20
2019-04-24T21:10:53.436Z,22.20
2019-04-24T21:13:23.749Z,22.10
2019-04-24T21:15:49.383Z,22.20
2019-04-24T21:18:16.478Z,22.10
2019-04-24T21:20:43.519Z,22.20
2019-04-24T21:23:11.157Z,22.10
2019-04-24T21:25:38.331Z,22.10
2019-04-24T21:28:05.426Z,22.10
2019-04-24T21:30:32.504Z,22.10
2019-04-24T21:32:59.655Z,22.10
2019-04-24T21:35:26.707Z,22.10
2019-04-24T21:37:53.800Z,22.10
2019-04-24T21:40:22.169Z,22.10
2019-04-24T21:42:49.639Z,22.10
2019-04-24T21:45:16.767Z,22.10
2019-04-24T21:47:43.852Z,22.10
2019-04-24T21:50:11.425Z,22.10
2019-04-24T21:52:38.700Z,22.10
2019-04-24T21:55:05.787Z,22.10
2019-04-24T21:57:33.917Z,22.10
2019-04-24T22:00:01.477Z,22.00
2019-04-24T22:02:29.332Z,22.10
2019-04-24T22:04:56.654Z,22.10
2019-04-24T22:07:24.335Z,22.10
2019-04-24T22:09:51.704Z,22.10
2019-04-24T22:12:19.009Z,22.10
2019-04-24T22:14:46.634Z,22.20
2019-04-24T22:17:13.714Z,22.20
2019-04-24T22:19:40.780Z,22.20
2019-04-24T22:22:07.828Z,22.20
2019-04-24T22:24:35.772Z,22.20
2019-04-24T22:27:03.000Z,22.20
2019-04-24T22:29:30.780Z,22.20
2019-04-24T22:31:58.076Z,22.20
2019-04-24T22:34:25.377Z,22.20
2019-04-24T22:36:52.477Z,22.20
2019-04-24T22:39:21.421Z,22.20
2019-04-24T22:41:48.510Z,22.20
2019-04-24T22:44:15.596Z,22.20
2019-04-24T22:46:42.674Z,22.20
2019-04-24T22:49:11.368Z,22.20
2019-04-24T22:51:38.918Z,22.20
2019-04-24T22:54:06.131Z,22.20
2019-04-24T22:56:43.718Z,22.20
2019-04-24T22:59:02.785Z,22.20
2019-04-24T23:01:30.376Z,22.20
2019-04-24T23:04:01.564Z,22.20
2019-04-24T23:06:32.388Z,22.20
2019-04-24T23:08:58.897Z,22.20
2019-04-24T23:11:25.963Z,22.20
2019-04-24T23:13:53.025Z,22.20
2019-04-24T23:16:20.095Z,22.20
2019-04-24T23:18:47.173Z,22.20
2019-04-24T23:21:14.225Z,22.20
2019-04-24T23:23:41.295Z,22.20
2019-04-24T23:26:08.384Z,22.20
2019-04-24T23:28:35.435Z,22.20
2019-04-24T23:31:02.477Z,22.20
2019-04-24T23:33:29.571Z,22.20
2019-04-24T23:35:56.644Z,22.10
2019-04-24T23:38:23.718Z,22.10
2019-04-24T23:40:52.067Z,22.20
2019-04-24T23:43:19.338Z,22.20
2019-04-24T23:45:46.389Z,22.20
2019-04-24T23:48:13.464Z,22.20
2019-04-24T23:50:42.561Z,22.20
2019-04-24T23:53:09.324Z,22.20
2019-04-24T23:55:36.368Z,22.20
2019-04-24T23:58:03.446Z,22.20
